createdAt,value
2023-03-21T00:00:46.441Z,99.90
2023-03-21T00:03:15.573Z,99.90
2023-03-21T00:05:49.639Z,99.90
2023-03-21T00:08:18.190Z,99.90
2023-03-21T00:10:46.421Z,99.90
2023-03-21T00:13:15.758Z,99.90
2023-03-21T00:18:42.277Z,99.90
2023-03-21T00:24:07.903Z,99.90
2023-03-21T00:26:38.190Z,99.90
2023-03-21T00:29:06.666Z,99.90
2023-03-21T00:31:36.243Z,99.90
2023-03-21T00:34:07.542Z,99.90
2023-03-21T00:36:35.839Z,99.90
2023-03-21T00:39:07.477Z,99.90
2023-03-21T00:41:42.653Z,99.90
2023-03-21T00:44:13.423Z,99.90
2023-03-21T00:46:51.570Z,99.90
2023-03-21T00:49:22.750Z,99.90
2023-03-21T00:51:53.236Z,99.90
2023-03-21T00:54:21.806Z,99.90
2023-03-21T00:56:50.231Z,99.90
2023-03-21T00:59:18.572Z,99.90
2023-03-21T01:01:48.217Z,99.90
2023-03-21T01:04:17.022Z,99.90
2023-03-21T01:06:46.806Z,99.90
2023-03-21T01:09:17.894Z,99.90
2023-03-21T01:11:47.110Z,99.90
2023-03-21T01:14:24.465Z,99.90
2023-03-21T01:16:56.397Z,99.90
2023-03-21T01:19:41.057Z,99.90
2023-03-21T01:22:16.775Z,99.90
2023-03-21T01:24:53.897Z,99.90
2023-03-21T01:27:25.453Z,99.90
2023-03-21T01:29:53.753Z,99.90
2023-03-21T01:32:23.433Z,99.90
2023-03-21T01:34:51.760Z,99.90
2023-03-21T01:37:22.719Z,99.90
2023-03-21T01:39:52.408Z,99.90
2023-03-21T01:42:21.422Z,99.90
2023-03-21T01:44:56.632Z,99.90
2023-03-21T01:47:27.656Z,99.90
2023-03-21T01:50:07.238Z,99.90
2023-03-21T01:52:59.161Z,99.90
2023-03-21T01:55:36.441Z,99.90
2023-03-21T01:58:12.704Z,99.90
2023-03-21T02:00:51.416Z,99.90
2023-03-21T02:03:38.339Z,99.90
2023-03-21T02:06:25.848Z,99.90
2023-03-21T02:09:09.564Z,99.90
2023-03-21T02:11:39.963Z,99.90
2023-03-21T02:14:20.099Z,99.90
2023-03-21T02:17:07.721Z,99.90
2023-03-21T02:20:25.315Z,99.90
2023-03-21T02:23:23.776Z,99.90
2023-03-21T02:26:21.357Z,99.90
2023-03-21T02:28:57.227Z,99.90
2023-03-21T02:31:32.928Z,99.90
2023-03-21T02:34:17.192Z,99.90
2023-03-21T02:36:57.361Z,99.90
2023-03-21T02:39:30.566Z,99.90
2023-03-21T02:42:07.345Z,99.90
2023-03-21T02:44:43.029Z,99.90
2023-03-21T02:47:16.154Z,99.90
2023-03-21T02:49:50.397Z,99.90
2023-03-21T02:52:38.025Z,99.90
2023-03-21T02:55:14.194Z,99.90
2023-03-21T02:57:53.676Z,99.90
2023-03-21T03:00:25.509Z,99.90
2023-03-21T03:03:08.168Z,99.90
2023-03-21T03:05:45.451Z,99.90
2023-03-21T03:08:39.455Z,99.90
2023-03-21T03:11:21.364Z,99.90
2023-03-21T03:14:25.172Z,99.90
2023-03-21T03:17:11.117Z,99.90
2023-03-21T03:19:51.475Z,99.90
2023-03-21T03:22:25.918Z,99.90
2023-03-21T03:25:18.592Z,99.90
2023-03-21T03:27:57.682Z,99.90
2023-03-21T03:30:39.287Z,99.90
2023-03-21T03:33:14.896Z,99.90
2023-03-21T03:35:44.834Z,99.90
2023-03-21T03:38:15.234Z,99.90
2023-03-21T03:40:49.898Z,99.90
2023-03-21T03:43:41.818Z,99.90
2023-03-21T03:46:15.461Z,99.90
2023-03-21T03:48:51.487Z,99.90
2023-03-21T03:51:24.772Z,99.90
2023-03-21T03:54:11.498Z,99.90
2023-03-21T03:56:42.011Z,99.90
2023-03-21T03:59:10.953Z,99.90
2023-03-21T04:01:52.800Z,99.90
2023-03-21T04:04:22.803Z,99.90
2023-03-21T04:06:53.392Z,99.90
2023-03-21T04:09:40.923Z,99.90
2023-03-21T04:12:19.360Z,99.90
2023-03-21T04:15:11.062Z,99.90
2023-03-21T04:17:45.368Z,99.90
2023-03-21T04:20:20.939Z,99.90
2023-03-21T04:22:52.234Z,99.90
2023-03-21T04:25:32.506Z,99.90
2023-03-21T04:28:06.189Z,99.90
2023-03-21T04:30:46.981Z,99.90
2023-03-21T04:33:25.781Z,99.90
2023-03-21T04:35:59.083Z,99.90
2023-03-21T04:38:34.562Z,99.90
2023-03-21T04:41:07.001Z,99.90
2023-03-21T04:43:36.507Z,99.90
2023-03-21T04:46:33.862Z,99.90
2023-03-21T04:49:30.389Z,99.90
2023-03-21T04:51:58.781Z,99.90
2023-03-21T04:54:32.325Z,99.90
2023-03-21T04:57:00.887Z,99.90
2023-03-21T04:59:33.394Z,99.90
2023-03-21T05:02:04.683Z,99.90
2023-03-21T05:04:33.227Z,99.90
2023-03-21T05:07:04.773Z,99.90
2023-03-21T05:09:33.257Z,99.90
2023-03-21T05:12:04.790Z,99.90
2023-03-21T05:14:35.977Z,99.90
2023-03-21T05:17:10.508Z,99.90
2023-03-21T05:19:40.437Z,99.90
2023-03-21T05:22:14.180Z,99.90
2023-03-21T05:24:42.744Z,99.90
2023-03-21T05:27:34.021Z,99.90
2023-03-21T05:30:12.374Z,99.90
2023-03-21T05:32:41.174Z,99.90
2023-03-21T05:35:12.969Z,99.90
2023-03-21T05:37:41.938Z,99.90
2023-03-21T05:40:11.506Z,99.90
2023-03-21T05:42:44.106Z,99.90
2023-03-21T05:45:19.942Z,99.90
2023-03-21T05:47:50.312Z,99.90
2023-03-21T05:50:19.011Z,99.90
2023-03-21T05:52:56.845Z,99.90
2023-03-21T05:55:25.220Z,99.90
2023-03-21T05:57:54.227Z,99.90
2023-03-21T06:00:30.635Z,99.90
2023-03-21T06:03:18.930Z,99.90
2023-03-21T06:06:10.243Z,99.90
2023-03-21T06:08:44.158Z,99.90
2023-03-21T06:11:25.537Z,99.90
2023-03-21T06:14:00.861Z,99.90
2023-03-21T06:16:35.229Z,99.90
2023-03-21T06:19:06.630Z,99.90
2023-03-21T06:21:43.923Z,99.90
2023-03-21T06:24:12.348Z,99.90
2023-03-21T06:26:42.767Z,99.90
2023-03-21T06:29:12.120Z,99.90
2023-03-21T06:31:46.289Z,99.90
2023-03-21T06:34:14.727Z,99.90
2023-03-21T06:36:44.671Z,99.90
2023-03-21T06:39:15.986Z,99.90
2023-03-21T06:41:45.360Z,99.90
2023-03-21T06:44:13.790Z,99.90
2023-03-21T06:46:58.071Z,99.90
2023-03-21T06:49:26.767Z,99.90
2023-03-21T06:51:57.347Z,99.90
2023-03-21T06:54:25.794Z,99.90
2023-03-21T06:56:58.863Z,99.90
2023-03-21T06:59:33.401Z,99.90
2023-03-21T07:02:10.919Z,99.90
2023-03-21T07:04:45.984Z,99.90
2023-03-21T07:07:19.500Z,99.90
2023-03-21T07:09:50.827Z,99.90
2023-03-21T07:12:19.141Z,99.90
2023-03-21T07:15:09.775Z,99.90
2023-03-21T07:17:41.641Z,99.90
2023-03-21T07:20:12.476Z,99.90
2023-03-21T07:22:40.911Z,99.90
2023-03-21T07:25:10.467Z,99.90
2023-03-21T07:27:42.217Z,99.90
2023-03-21T07:30:12.097Z,99.90
2023-03-21T07:32:41.732Z,99.90
2023-03-21T07:35:13.471Z,99.90
2023-03-21T07:37:44.071Z,99.90
2023-03-21T07:40:16.746Z,99.90
2023-03-21T07:42:45.935Z,99.90
2023-03-21T07:45:21.231Z,99.90
2023-03-21T07:47:51.220Z,99.90
2023-03-21T07:50:21.332Z,99.90
2023-03-21T07:52:49.641Z,99.90
2023-03-21T07:55:18.685Z,99.90
2023-03-21T07:57:47.064Z,99.90
2023-03-21T08:00:22.810Z,99.90
2023-03-21T08:02:57.863Z,99.90
2023-03-21T08:05:28.682Z,99.90
2023-03-21T08:07:58.153Z,99.90
2023-03-21T08:10:26.783Z,99.90
2023-03-21T08:12:55.057Z,99.90
2023-03-21T08:15:24.024Z,99.90
2023-03-21T08:17:53.515Z,99.90
2023-03-21T08:20:25.007Z,99.90
2023-03-21T08:22:53.319Z,99.90
2023-03-21T08:25:22.831Z,99.90
2023-03-21T08:27:52.200Z,99.90
2023-03-21T08:30:22.758Z,99.90
2023-03-21T08:33:00.850Z,99.90
2023-03-21T08:35:38.361Z,99.90
2023-03-21T08:38:11.335Z,99.90
2023-03-21T08:40:39.672Z,99.90
2023-03-21T08:43:07.974Z,99.90
2023-03-21T08:45:36.689Z,99.90
2023-03-21T08:48:12.395Z,99.90
2023-03-21T08:50:41.121Z,99.90
2023-03-21T08:53:09.392Z,99.90
2023-03-21T08:55:38.263Z,99.90
2023-03-21T08:58:07.692Z,99.90
2023-03-21T09:00:36.116Z,99.90
2023-03-21T09:03:06.669Z,99.90
2023-03-21T09:05:37.317Z,99.90
2023-03-21T09:08:06.759Z,99.90
2023-03-21T09:10:35.042Z,99.90
2023-03-21T09:13:06.869Z,99.90
2023-03-21T09:15:35.426Z,99.90
2023-03-21T09:18:13.640Z,99.90
2023-03-21T09:20:44.653Z,99.90
2023-03-21T09:23:14.149Z,99.90
2023-03-21T09:25:42.938Z,99.90
2023-03-21T09:28:13.037Z,99.90
2023-03-21T09:30:41.576Z,99.90
2023-03-21T09:33:13.085Z,99.90
2023-03-21T09:35:41.840Z,99.90
2023-03-21T09:38:11.668Z,99.90
2023-03-21T09:40:57.274Z,99.90
2023-03-21T09:43:38.124Z,99.90
2023-03-21T09:46:11.990Z,99.90
2023-03-21T09:48:56.619Z,99.90
2023-03-21T09:51:28.606Z,99.90
2023-03-21T09:54:00.769Z,99.90
2023-03-21T09:56:31.906Z,99.90
2023-03-21T09:59:32.301Z,99.90
2023-03-21T10:02:04.841Z,99.90
2023-03-21T10:04:34.825Z,99.90
2023-03-21T10:07:15.979Z,99.90
2023-03-21T10:09:47.195Z,99.90
2023-03-21T10:12:21.635Z,99.90
2023-03-21T10:14:52.956Z,99.90
2023-03-21T10:17:30.922Z,99.90
2023-03-21T10:20:13.168Z,99.90
2023-03-21T10:22:41.896Z,99.90
2023-03-21T10:25:16.793Z,99.90
2023-03-21T10:27:45.968Z,99.90
2023-03-21T10:30:27.261Z,99.90
2023-03-21T10:32:59.680Z,99.90
2023-03-21T10:35:33.569Z,99.90
2023-03-21T10:38:06.709Z,97.70
2023-03-21T10:40:36.269Z,73.10
2023-03-21T10:43:19.767Z,63.10
2023-03-21T10:45:49.177Z,59.70
2023-03-21T10:48:17.744Z,60.80
2023-03-21T10:50:49.978Z,60.80
2023-03-21T10:53:22.803Z,77.40
2023-03-21T10:55:56.596Z,70.60
2023-03-21T10:58:28.811Z,71.80
2023-03-21T11:00:59.824Z,78.70
2023-03-21T11:03:33.835Z,92.70
2023-03-21T11:06:05.919Z,91.30
2023-03-21T11:08:39.814Z,92.30
2023-03-21T11:11:12.354Z,99.90
2023-03-21T11:13:42.716Z,99.90
2023-03-21T11:16:13.458Z,99.90
2023-03-21T11:18:43.884Z,99.90
2023-03-21T11:21:15.001Z,99.90
2023-03-21T11:24:14.529Z,99.90
2023-03-21T11:26:45.823Z,99.90
2023-03-21T11:29:27.737Z,99.90
2023-03-21T11:32:06.754Z,99.90
2023-03-21T11:34:45.887Z,99.90
2023-03-21T11:37:21.812Z,99.90
2023-03-21T11:39:56.899Z,99.90
2023-03-21T11:42:30.864Z,99.90
2023-03-21T11:45:05.137Z,99.90
2023-03-21T11:47:33.497Z,99.90
2023-03-21T11:50:07.583Z,99.90
2023-03-21T11:52:42.319Z,99.90
2023-03-21T11:55:36.403Z,99.90
2023-03-21T11:58:22.393Z,99.90
2023-03-21T12:00:59.275Z,99.90
2023-03-21T12:03:49.354Z,99.90
2023-03-21T12:06:27.362Z,99.90
2023-03-21T12:09:07.872Z,99.90
2023-03-21T12:11:44.449Z,99.90
2023-03-21T12:14:21.236Z,99.90
2023-03-21T12:17:33.162Z,99.90
2023-03-21T12:20:22.316Z,99.90
2023-03-21T12:23:13.760Z,99.90
2023-03-21T12:25:54.326Z,99.90
2023-03-21T12:28:33.631Z,99.90
2023-03-21T12:31:10.646Z,99.90
2023-03-21T12:33:55.486Z,99.90
2023-03-21T12:36:40.313Z,99.90
2023-03-21T12:39:18.912Z,99.90
2023-03-21T12:41:58.845Z,99.90
2023-03-21T12:44:33.189Z,99.90
2023-03-21T12:47:08.784Z,99.90
2023-03-21T12:49:42.376Z,99.90
2023-03-21T12:52:15.525Z,99.90
2023-03-21T12:54:50.510Z,99.90
2023-03-21T12:57:23.242Z,99.90
2023-03-21T12:59:57.070Z,99.90
2023-03-21T13:02:32.225Z,99.90
2023-03-21T13:05:07.963Z,99.90
2023-03-21T13:07:42.562Z,99.90
2023-03-21T13:10:15.679Z,99.90
2023-03-21T13:12:51.247Z,99.90
2023-03-21T13:15:44.815Z,99.90
2023-03-21T13:18:21.927Z,99.90
2023-03-21T13:20:54.057Z,99.90
2023-03-21T13:23:24.001Z,99.90
2023-03-21T13:25:56.650Z,99.90
2023-03-21T13:28:29.964Z,99.90
2023-03-21T13:31:18.043Z,99.90
2023-03-21T13:33:50.237Z,99.90
2023-03-21T13:36:25.666Z,99.90
2023-03-21T13:38:56.571Z,99.90
2023-03-21T13:41:32.337Z,99.90
2023-03-21T13:44:18.254Z,99.90
2023-03-21T13:46:56.214Z,99.90
2023-03-21T13:49:32.290Z,99.90
2023-03-21T13:52:04.778Z,99.90
2023-03-21T13:54:50.921Z,99.90
2023-03-21T13:57:38.209Z,99.90
2023-03-21T14:00:24.074Z,99.90
2023-03-21T14:02:57.416Z,99.90
2023-03-21T14:05:28.401Z,99.90
2023-03-21T14:08:12.261Z,99.90
2023-03-21T14:10:46.544Z,99.90
2023-03-21T14:13:19.970Z,99.90
2023-03-21T14:15:55.945Z,99.90
2023-03-21T14:18:28.469Z,99.90
2023-03-21T14:21:23.713Z,99.90
2023-03-21T14:24:04.778Z,99.90
2023-03-21T14:26:35.598Z,99.90
2023-03-21T14:29:22.841Z,99.90
2023-03-21T14:31:56.170Z,99.90
2023-03-21T14:34:26.064Z,99.90
2023-03-21T14:36:58.509Z,99.90
2023-03-21T14:39:30.078Z,99.90
2023-03-21T14:42:31.710Z,99.90
2023-03-21T14:45:00.524Z,99.90
2023-03-21T14:47:33.070Z,99.90
2023-03-21T14:50:04.788Z,99.90
2023-03-21T14:52:35.809Z,99.90
2023-03-21T14:55:15.928Z,99.90
2023-03-21T14:57:44.432Z,99.90
2023-03-21T15:00:22.850Z,99.90
2023-03-21T15:02:53.262Z,99.90
2023-03-21T15:05:25.953Z,99.90
2023-03-21T15:07:58.692Z,99.90
2023-03-21T15:10:30.774Z,99.90
2023-03-21T15:13:04.768Z,99.90
2023-03-21T15:15:34.023Z,99.90
2023-03-21T15:18:05.968Z,99.90
2023-03-21T15:20:38.664Z,99.90
2023-03-21T15:23:12.893Z,99.90
2023-03-21T15:25:42.013Z,99.90
2023-03-21T15:28:14.123Z,99.90
2023-03-21T15:30:49.089Z,99.90
2023-03-21T15:33:18.413Z,99.90
2023-03-21T15:35:54.169Z,99.90
2023-03-21T15:38:30.436Z,99.90
2023-03-21T15:41:16.217Z,99.90
2023-03-21T15:43:44.897Z,99.90
2023-03-21T15:46:16.836Z,99.90
2023-03-21T15:48:46.764Z,99.90
2023-03-21T15:51:22.875Z,99.90
2023-03-21T15:53:55.105Z,99.90
2023-03-21T15:56:23.868Z,99.90
2023-03-21T15:58:54.168Z,99.90
2023-03-21T16:01:26.297Z,99.90
2023-03-21T16:03:58.268Z,99.90
2023-03-21T16:06:33.536Z,99.90
2023-03-21T16:09:12.290Z,99.90
2023-03-21T16:11:42.641Z,99.90
2023-03-21T16:14:12.601Z,99.90
2023-03-21T16:16:41.433Z,99.90
2023-03-21T16:19:09.791Z,99.90
2023-03-21T16:21:39.146Z,99.90
2023-03-21T16:24:13.392Z,99.90
2023-03-21T16:26:45.970Z,99.90
2023-03-21T16:29:15.865Z,99.90
2023-03-21T16:31:44.726Z,99.90
2023-03-21T16:34:13.148Z,99.90
2023-03-21T16:36:43.333Z,99.90
2023-03-21T16:39:18.322Z,99.90
2023-03-21T16:41:47.449Z,99.90
2023-03-21T16:44:17.176Z,99.90
2023-03-21T16:46:47.069Z,99.90
2023-03-21T16:49:19.683Z,99.90
2023-03-21T16:51:48.002Z,99.90
2023-03-21T16:54:17.894Z,99.90
2023-03-21T16:56:50.446Z,99.90
2023-03-21T16:59:19.400Z,99.90
2023-03-21T17:01:48.937Z,99.90
2023-03-21T17:04:19.293Z,99.90
2023-03-21T17:06:49.992Z,99.90
2023-03-21T17:09:21.225Z,99.90
2023-03-21T17:11:49.840Z,99.90
2023-03-21T17:14:18.587Z,99.90
2023-03-21T17:16:47.209Z,99.90
2023-03-21T17:19:17.178Z,99.90
2023-03-21T17:21:46.463Z,99.90
2023-03-21T17:24:15.597Z,99.90
2023-03-21T17:26:45.343Z,99.90
2023-03-21T17:29:15.400Z,99.90
2023-03-21T17:31:47.178Z,99.90
2023-03-21T17:34:15.563Z,99.90
2023-03-21T17:36:46.156Z,99.90
2023-03-21T17:39:21.233Z,99.90
2023-03-21T17:41:51.868Z,99.90
2023-03-21T17:44:20.388Z,99.90
2023-03-21T17:46:51.179Z,99.90
2023-03-21T17:49:21.087Z,99.90
2023-03-21T17:51:50.325Z,99.90
2023-03-21T17:54:18.830Z,99.90
2023-03-21T17:56:47.267Z,99.90
2023-03-21T17:59:16.931Z,99.90
2023-03-21T18:01:45.367Z,99.90
2023-03-21T18:04:13.824Z,99.90
2023-03-21T18:06:42.225Z,99.90
2023-03-21T18:09:12.324Z,99.90
2023-03-21T18:11:41.786Z,99.90
2023-03-21T18:14:17.180Z,99.90
2023-03-21T18:16:54.036Z,99.90
2023-03-21T18:19:22.372Z,99.90
2023-03-21T18:21:52.485Z,99.90
2023-03-21T18:24:20.817Z,99.90
2023-03-21T18:26:49.955Z,99.90
2023-03-21T18:30:17.427Z,99.90
2023-03-21T18:32:09.631Z,99.90
2023-03-21T18:34:42.220Z,99.90
2023-03-21T18:37:13.423Z,99.90
2023-03-21T18:39:44.471Z,99.90
2023-03-21T18:42:18.107Z,99.90
2023-03-21T18:44:50.675Z,99.90
2023-03-21T18:47:20.828Z,99.90
2023-03-21T18:52:37.588Z,99.90
2023-03-21T18:55:11.866Z,99.90
2023-03-21T18:57:40.564Z,99.90
2023-03-21T19:00:13.410Z,99.90
2023-03-21T19:02:47.351Z,99.90
2023-03-21T19:05:17.982Z,99.90
2023-03-21T19:07:47.749Z,99.90
2023-03-21T19:10:20.242Z,99.90
2023-03-21T19:12:49.439Z,99.90
2023-03-21T19:15:21.336Z,99.90
2023-03-21T19:20:44.537Z,99.90
2023-03-21T19:23:12.846Z,99.90
2023-03-21T19:25:41.356Z,99.90
2023-03-21T19:28:09.800Z,99.90
2023-03-21T19:30:38.328Z,99.90
2023-03-21T19:33:08.414Z,99.90
2023-03-21T19:35:40.929Z,99.90
2023-03-21T19:38:11.667Z,99.90
2023-03-21T19:40:40.935Z,99.90
2023-03-21T19:43:31.084Z,99.90
2023-03-21T19:45:58.106Z,99.90
2023-03-21T19:48:28.167Z,99.90
2023-03-21T19:53:44.931Z,99.90
2023-03-21T19:56:21.804Z,99.90
2023-03-21T19:58:52.073Z,99.90
2023-03-21T20:01:21.124Z,99.90
2023-03-21T20:03:51.458Z,99.90
2023-03-21T20:06:19.892Z,99.90
2023-03-21T20:11:49.818Z,99.90
2023-03-21T20:14:18.135Z,99.90
2023-03-21T20:16:47.165Z,99.90
2023-03-21T20:19:16.981Z,99.90
2023-03-21T20:21:52.158Z,99.90
2023-03-21T20:24:24.834Z,99.90
2023-03-21T20:26:54.945Z,99.90
2023-03-21T20:32:12.344Z,99.90
2023-03-21T20:34:44.289Z,99.90
2023-03-21T20:37:13.332Z,99.90
2023-03-21T20:39:42.389Z,99.90
2023-03-21T20:42:10.779Z,99.90
2023-03-21T20:44:56.775Z,99.90
2023-03-21T20:47:26.678Z,99.90
2023-03-21T20:49:58.402Z,99.90
2023-03-21T20:52:54.903Z,99.90
2023-03-21T20:55:17.385Z,99.90
2023-03-21T20:57:48.579Z,99.90
2023-03-21T21:00:17.968Z,99.90
2023-03-21T21:02:48.130Z,99.90
2023-03-21T21:05:30.804Z,99.90
2023-03-21T21:08:04.866Z,99.90
2023-03-21T21:10:33.786Z,99.90
2023-03-21T21:13:07.381Z,99.90
2023-03-21T21:15:35.715Z,99.90
2023-03-21T21:18:07.615Z,99.90
2023-03-21T21:20:38.400Z,99.90
2023-03-21T21:23:09.670Z,99.90
2023-03-21T21:25:38.205Z,99.90
2023-03-21T21:28:11.742Z,99.90
2023-03-21T21:30:42.750Z,99.90
2023-03-21T21:33:11.247Z,99.90
2023-03-21T21:35:47.318Z,99.90
2023-03-21T21:38:17.452Z,99.90
2023-03-21T21:40:45.977Z,99.90
2023-03-21T21:43:14.836Z,99.90
2023-03-21T21:45:43.365Z,99.90
2023-03-21T21:48:11.910Z,99.90
2023-03-21T21:50:42.395Z,99.90
2023-03-21T21:53:13.149Z,99.90
2023-03-21T21:55:41.524Z,99.90
2023-03-21T21:58:13.502Z,99.90
2023-03-21T22:00:42.672Z,99.90
2023-03-21T22:03:11.995Z,99.90
2023-03-21T22:05:44.245Z,99.90
2023-03-21T22:08:12.622Z,99.90
2023-03-21T22:10:41.230Z,99.90
2023-03-21T22:13:09.634Z,99.90
2023-03-21T22:15:39.236Z,99.90
2023-03-21T22:18:12.023Z,99.90
2023-03-21T22:20:41.616Z,99.90
2023-03-21T22:23:09.871Z,99.90
2023-03-21T22:25:38.387Z,99.90
2023-03-21T22:28:06.700Z,99.90
2023-03-21T22:30:34.979Z,99.90
2023-03-21T22:33:33.415Z,99.90
2023-03-21T22:36:09.256Z,99.90
2023-03-21T22:38:38.155Z,99.90
2023-03-21T22:41:07.474Z,99.90
2023-03-21T22:43:35.929Z,99.90
2023-03-21T22:46:07.294Z,99.90
2023-03-21T22:48:35.593Z,99.90
2023-03-21T22:51:08.817Z,99.90
2023-03-21T22:53:37.383Z,99.90
2023-03-21T22:56:07.467Z,99.90
2023-03-21T22:58:35.848Z,99.90
2023-03-21T23:01:06.173Z,99.90
2023-03-21T23:03:34.513Z,99.90
2023-03-21T23:06:05.977Z,99.90
2023-03-21T23:08:35.778Z,99.90
2023-03-21T23:11:07.645Z,99.90
2023-03-21T23:13:36.656Z,99.90
2023-03-21T23:16:08.693Z,99.90
2023-03-21T23:18:38.528Z,99.90
2023-03-21T23:21:13.141Z,99.90
2023-03-21T23:23:50.103Z,99.90
2023-03-21T23:26:20.941Z,99.90
2023-03-21T23:28:49.581Z,99.90
2023-03-21T23:31:21.212Z,99.90
2023-03-21T23:33:50.956Z,99.90
2023-03-21T23:36:20.934Z,99.90
2023-03-21T23:38:51.317Z,99.90
2023-03-21T23:41:22.137Z,99.90
2023-03-21T23:43:51.009Z,99.90
2023-03-21T23:46:21.796Z,99.90
2023-03-21T23:48:50.576Z,99.90
2023-03-21T23:51:20.601Z,99.90
2023-03-21T23:53:51.379Z,99.90
2023-03-21T23:56:21.831Z,99.90
2023-03-21T23:58:51.232Z,99.90
